CPX260 Details

Departure: General Edward Lawrence Logan International Airport (KBOS)
Arrival: Washington Dulles International Airport (KIAD)
Route: BLZZR4 BLZZR BAF HYPER7


Current Weather Information
KBOS 251054Z 29008KT 10SM FEW250 15/07 A3019 RMK AO2 SLP222 T01500067 $
KIAD 251052Z 13007KT 10SM BKN065 19/12 A3019 RMK AO2 SLP220 T01890117